createdAt,value
2023-09-04T00:01:50.468Z,2.63
2023-09-04T00:04:36.138Z,2.40
2023-09-04T00:07:21.747Z,2.67
2023-09-04T00:10:07.467Z,2.40
2023-09-04T00:12:52.789Z,2.40
2023-09-04T00:15:38.979Z,2.60
2023-09-04T00:18:25.392Z,2.75
2023-09-04T00:21:11.115Z,2.47
2023-09-04T00:23:56.881Z,2.67
2023-09-04T00:26:42.130Z,2.70
2023-09-04T00:29:27.698Z,2.50
2023-09-04T00:32:13.286Z,2.75
2023-09-04T00:34:58.607Z,2.65
2023-09-04T00:37:44.143Z,2.70
2023-09-04T00:40:29.966Z,3.40
2023-09-04T00:43:15.716Z,3.58
2023-09-04T00:46:01.235Z,3.65
2023-09-04T00:48:47.319Z,2.75
2023-09-04T00:51:33.237Z,2.65
2023-09-04T00:54:18.934Z,2.80
2023-09-04T00:57:06.393Z,2.50
2023-09-04T00:59:52.075Z,2.70
2023-09-04T01:02:39.552Z,2.53
2023-09-04T01:05:25.154Z,2.45
2023-09-04T01:08:10.399Z,2.60
2023-09-04T01:11:13.441Z,2.40
2023-09-04T01:14:00.433Z,2.50
2023-09-04T01:16:47.083Z,2.50
2023-09-04T01:19:33.173Z,2.83
2023-09-04T01:22:18.980Z,2.97
2023-09-04T01:25:04.316Z,2.60
2023-09-04T01:27:59.169Z,3.00
2023-09-04T01:31:17.125Z,2.75
2023-09-04T01:34:16.946Z,2.70
2023-09-04T01:37:02.698Z,2.70
2023-09-04T01:39:49.683Z,3.10
2023-09-04T01:42:35.772Z,3.00
2023-09-04T01:45:21.019Z,3.20
2023-09-04T01:48:07.128Z,3.00
2023-09-04T01:50:54.241Z,2.88
2023-09-04T01:53:39.940Z,3.13
2023-09-04T01:56:25.574Z,2.90
2023-09-04T01:59:11.052Z,2.60
2023-09-04T02:01:56.558Z,2.80
2023-09-04T02:04:42.204Z,3.10
2023-09-04T02:07:27.802Z,3.28
2023-09-04T02:10:13.208Z,3.22
2023-09-04T02:12:59.648Z,3.80
2023-09-04T02:15:46.732Z,4.50
2023-09-04T02:18:32.833Z,5.05
2023-09-04T02:21:18.471Z,4.95
2023-09-04T02:24:04.010Z,3.85
2023-09-04T02:26:49.484Z,3.42
2023-09-04T02:29:35.052Z,3.60
2023-09-04T02:32:20.319Z,3.53
2023-09-04T02:35:06.583Z,3.70
2023-09-04T02:37:52.006Z,4.05
2023-09-04T02:40:37.289Z,4.50
2023-09-04T02:43:22.606Z,4.20
2023-09-04T02:46:08.465Z,3.88
2023-09-04T02:48:53.893Z,3.55
2023-09-04T02:51:39.912Z,3.60
2023-09-04T02:54:25.265Z,3.88
2023-09-04T02:57:11.076Z,3.65
2023-09-04T02:59:56.417Z,3.78
2023-09-04T03:02:43.004Z,3.83
2023-09-04T03:05:28.993Z,4.07
2023-09-04T03:08:16.456Z,3.95
2023-09-04T03:11:02.687Z,4.10
2023-09-04T03:13:48.201Z,4.35
2023-09-04T03:16:33.864Z,4.10
2023-09-04T03:19:19.406Z,4.40
2023-09-04T03:22:05.131Z,4.03
2023-09-04T03:24:50.695Z,4.35
2023-09-04T03:27:36.249Z,3.95
2023-09-04T03:30:22.427Z,4.70
2023-09-04T03:33:08.128Z,4.32
2023-09-04T03:35:53.630Z,4.47
2023-09-04T03:38:39.805Z,4.70
2023-09-04T03:41:25.454Z,4.63
2023-09-04T03:44:10.627Z,4.60
2023-09-04T03:46:55.859Z,4.60
2023-09-04T03:49:41.438Z,4.53
2023-09-04T03:52:26.912Z,4.40
2023-09-04T03:55:13.030Z,4.32
2023-09-04T03:57:58.567Z,4.15
2023-09-04T04:00:44.386Z,4.53
2023-09-04T04:03:30.758Z,3.50
2023-09-04T04:06:16.450Z,4.18
2023-09-04T04:09:02.363Z,4.30
2023-09-04T04:11:48.074Z,3.80
2023-09-04T04:14:33.613Z,4.05
2023-09-04T04:17:18.915Z,3.97
2023-09-04T04:20:05.272Z,3.95
2023-09-04T04:22:50.922Z,3.90
2023-09-04T04:25:36.815Z,4.13
2023-09-04T04:28:23.918Z,4.22
2023-09-04T04:31:10.132Z,4.35
2023-09-04T04:33:56.652Z,4.18
2023-09-04T04:36:42.376Z,4.45
2023-09-04T04:39:28.119Z,3.90
2023-09-04T04:42:15.570Z,4.45
2023-09-04T04:45:00.876Z,4.53
2023-09-04T04:47:46.193Z,4.40
2023-09-04T04:50:31.881Z,4.43
2023-09-04T04:53:17.220Z,4.70
2023-09-04T04:56:04.930Z,4.20
2023-09-04T04:58:50.231Z,4.40
2023-09-04T05:01:36.149Z,4.60
2023-09-04T05:04:21.706Z,4.13
2023-09-04T05:07:07.167Z,4.40
2023-09-04T05:09:54.093Z,4.68
2023-09-04T05:12:40.042Z,4.25
2023-09-04T05:15:25.234Z,4.90
2023-09-04T05:18:11.696Z,4.72
2023-09-04T05:20:59.219Z,4.32
2023-09-04T05:23:44.474Z,4.13
2023-09-04T05:26:30.126Z,4.28
2023-09-04T05:29:15.394Z,4.88
2023-09-04T05:32:00.751Z,4.40
2023-09-04T05:34:46.192Z,4.50
2023-09-04T05:37:32.472Z,4.40
2023-09-04T05:40:17.920Z,4.57
2023-09-04T05:43:03.941Z,4.82
2023-09-04T05:45:49.962Z,5.00
2023-09-04T05:48:35.404Z,4.82
2023-09-04T05:51:20.630Z,5.38
2023-09-04T05:54:06.146Z,5.90
2023-09-04T05:56:51.783Z,5.68
2023-09-04T05:59:37.268Z,5.13
2023-09-04T06:02:22.549Z,4.07
2023-09-04T06:05:08.295Z,3.80
2023-09-04T06:07:54.041Z,3.72
2023-09-04T06:10:39.800Z,3.50
2023-09-04T06:13:25.347Z,3.45
2023-09-04T06:16:10.886Z,3.38
2023-09-04T06:18:56.599Z,3.25
2023-09-04T06:21:42.146Z,3.10
2023-09-04T06:24:27.729Z,3.35
2023-09-04T06:27:13.297Z,3.28
2023-09-04T06:29:58.515Z,3.10
2023-09-04T06:32:44.289Z,3.72
2023-09-04T06:35:30.283Z,3.53
2023-09-04T06:38:15.711Z,3.88
2023-09-04T06:41:01.288Z,3.47
2023-09-04T06:43:46.860Z,4.10
2023-09-04T06:46:33.263Z,3.65
2023-09-04T06:49:18.722Z,3.83
2023-09-04T06:52:04.397Z,3.72
2023-09-04T06:54:49.740Z,4.13
2023-09-04T06:57:34.982Z,4.22
2023-09-04T07:00:21.685Z,4.35
2023-09-04T07:03:07.398Z,3.92
2023-09-04T07:05:53.141Z,4.60
2023-09-04T07:08:38.487Z,4.53
2023-09-04T07:11:24.444Z,4.03
2023-09-04T07:14:09.729Z,4.35
2023-09-04T07:17:07.572Z,4.13
2023-09-04T07:19:53.977Z,4.10
2023-09-04T07:22:39.928Z,4.05
2023-09-04T07:25:25.306Z,4.85
2023-09-04T07:28:10.679Z,4.32
2023-09-04T07:31:16.645Z,4.18
2023-09-04T07:34:02.887Z,4.00
2023-09-04T07:36:48.421Z,3.60
2023-09-04T07:39:33.903Z,4.13
2023-09-04T07:42:19.625Z,3.75
2023-09-04T07:45:05.422Z,3.97
2023-09-04T07:47:51.010Z,3.65
2023-09-04T07:50:36.297Z,3.10
2023-09-04T07:53:22.844Z,2.90
2023-09-04T07:56:10.965Z,3.03
2023-09-04T07:58:56.076Z,2.80
2023-09-04T08:01:41.448Z,3.10
2023-09-04T08:04:27.124Z,2.60
2023-09-04T08:07:12.505Z,3.05
2023-09-04T08:09:57.930Z,3.17
2023-09-04T08:12:43.787Z,3.00
2023-09-04T08:15:28.985Z,2.60
2023-09-04T08:18:14.515Z,2.65
2023-09-04T08:20:59.836Z,2.72
2023-09-04T08:23:45.786Z,2.75
2023-09-04T08:26:31.306Z,2.60
2023-09-04T08:29:16.714Z,2.85
2023-09-04T08:32:02.290Z,2.70
2023-09-04T08:34:47.883Z,2.78
2023-09-04T08:37:33.221Z,2.90
2023-09-04T08:40:18.567Z,2.47
2023-09-04T08:43:05.309Z,2.38
2023-09-04T08:45:51.306Z,2.17
2023-09-04T08:48:40.844Z,1.90
2023-09-04T08:51:27.584Z,2.03
2023-09-04T08:54:13.364Z,1.85
2023-09-04T08:56:59.166Z,1.65
2023-09-04T08:59:44.589Z,1.40
2023-09-04T09:02:31.004Z,1.63
2023-09-04T09:05:18.274Z,1.20
2023-09-04T09:08:05.466Z,1.30
2023-09-04T09:10:52.693Z,1.20
2023-09-04T09:13:38.092Z,1.40
2023-09-04T09:16:23.466Z,1.38
2023-09-04T09:19:10.224Z,1.38
2023-09-04T09:22:09.340Z,1.48
2023-09-04T09:25:00.779Z,1.50
2023-09-04T09:27:46.314Z,1.33
2023-09-04T09:30:37.985Z,1.30
2023-09-04T09:33:23.463Z,1.40
2023-09-04T09:36:17.957Z,1.23
2023-09-04T09:39:05.069Z,1.38
2023-09-04T09:41:50.410Z,1.50
2023-09-04T09:44:35.988Z,1.58
2023-09-04T09:47:22.382Z,1.50
2023-09-04T09:50:09.021Z,1.52
2023-09-04T09:53:01.608Z,1.42
2023-09-04T09:55:49.676Z,1.42
2023-09-04T09:58:35.081Z,1.67
2023-09-04T10:01:20.407Z,1.90
2023-09-04T10:04:07.378Z,1.60
2023-09-04T10:06:54.426Z,1.50
2023-09-04T10:09:45.994Z,1.50
2023-09-04T10:12:42.046Z,1.58
2023-09-04T10:15:28.711Z,1.77
2023-09-04T10:18:47.545Z,1.70
2023-09-04T10:21:41.469Z,1.70
2023-09-04T10:24:55.111Z,1.55
2023-09-04T10:27:45.525Z,1.48
2023-09-04T10:30:37.105Z,1.40
2023-09-04T10:33:22.651Z,1.30
2023-09-04T10:36:09.907Z,1.25
2023-09-04T10:38:55.963Z,1.30
2023-09-04T10:41:42.047Z,1.20
2023-09-04T10:44:45.775Z,1.30
2023-09-04T10:47:44.857Z,1.20
2023-09-04T10:50:34.952Z,1.30
2023-09-04T10:53:30.826Z,1.40
2023-09-04T10:59:27.069Z,1.23
2023-09-04T11:02:26.476Z,1.27
2023-09-04T11:05:11.909Z,1.50
2023-09-04T11:08:26.628Z,1.20
2023-09-04T11:11:12.225Z,1.20
2023-09-04T11:14:03.936Z,1.30
2023-09-04T11:16:50.776Z,1.02
2023-09-04T11:19:36.234Z,1.25
2023-09-04T11:22:23.896Z,1.25
2023-09-04T11:25:09.085Z,1.33
2023-09-04T11:27:54.381Z,1.48
2023-09-04T11:30:40.495Z,1.30
2023-09-04T11:33:30.266Z,1.10
2023-09-04T11:36:16.390Z,1.20
2023-09-04T11:39:06.027Z,1.30
2023-09-04T11:41:51.230Z,1.25
2023-09-04T11:44:36.740Z,1.30
2023-09-04T11:47:23.454Z,1.30
2023-09-04T11:50:15.298Z,1.20
2023-09-04T11:53:01.166Z,1.40
2023-09-04T11:55:52.862Z,1.42
2023-09-04T11:58:40.571Z,1.30
2023-09-04T12:01:27.081Z,1.30
2023-09-04T12:04:12.414Z,1.38
2023-09-04T12:06:57.726Z,1.15
2023-09-04T12:09:43.377Z,1.30
2023-09-04T12:12:28.788Z,1.40
2023-09-04T12:15:26.799Z,1.25
2023-09-04T12:18:12.189Z,1.40
2023-09-04T12:20:57.980Z,1.23
2023-09-04T12:23:47.629Z,1.40
2023-09-04T12:26:33.032Z,1.35
2023-09-04T12:29:21.697Z,1.45
2023-09-04T12:32:07.066Z,1.23
2023-09-04T12:35:00.652Z,1.40
2023-09-04T12:37:46.572Z,1.30
2023-09-04T12:40:32.176Z,1.30
2023-09-04T12:43:17.475Z,1.52
2023-09-04T12:46:02.891Z,1.40
2023-09-04T12:48:49.831Z,1.38
2023-09-04T12:51:35.279Z,1.30
2023-09-04T12:54:20.704Z,1.40
2023-09-04T12:57:06.348Z,1.45
2023-09-04T12:59:52.126Z,1.40
2023-09-04T13:02:38.029Z,1.40
2023-09-04T13:05:25.114Z,1.40
2023-09-04T13:08:10.531Z,1.33
2023-09-04T13:10:56.048Z,1.30
2023-09-04T13:13:42.971Z,1.38
2023-09-04T13:16:28.347Z,1.30
2023-09-04T13:19:13.726Z,1.52
2023-09-04T13:21:59.239Z,1.30
2023-09-04T13:24:44.657Z,1.50
2023-09-04T13:27:30.123Z,1.40
2023-09-04T13:30:15.636Z,1.50
2023-09-04T13:33:01.193Z,1.40
2023-09-04T13:35:46.960Z,1.65
2023-09-04T13:38:32.430Z,1.52
2023-09-04T13:41:20.615Z,1.23
2023-09-04T13:44:05.925Z,1.52
2023-09-04T13:46:51.428Z,1.50
2023-09-04T13:49:37.333Z,1.30
2023-09-04T13:52:24.940Z,1.42
2023-09-04T13:55:10.678Z,1.50
2023-09-04T13:57:56.177Z,1.52
2023-09-04T14:00:42.164Z,1.55
2023-09-04T14:03:28.044Z,1.70
2023-09-04T14:06:13.760Z,1.30
2023-09-04T14:08:59.587Z,1.33
2023-09-04T14:11:44.862Z,1.60
2023-09-04T14:14:31.092Z,1.52
2023-09-04T14:17:16.779Z,1.60
2023-09-04T14:20:02.291Z,1.50
2023-09-04T14:22:47.829Z,1.45
2023-09-04T14:25:33.599Z,1.33
2023-09-04T14:28:18.809Z,1.40
2023-09-04T14:31:04.638Z,1.50
2023-09-04T14:33:50.014Z,1.50
2023-09-04T14:36:35.948Z,1.50
2023-09-04T14:39:21.613Z,1.50
2023-09-04T14:42:07.719Z,1.30
2023-09-04T14:44:53.290Z,1.45
2023-09-04T14:47:38.934Z,1.40
2023-09-04T14:50:27.566Z,1.65
2023-09-04T14:53:12.819Z,1.48
2023-09-04T14:55:58.959Z,1.30
2023-09-04T14:58:44.677Z,1.30
2023-09-04T15:01:30.088Z,1.40
2023-09-04T15:04:15.387Z,1.50
2023-09-04T15:07:00.734Z,1.48
2023-09-04T15:09:46.345Z,1.50
2023-09-04T15:12:32.039Z,1.40
2023-09-04T15:15:17.547Z,1.42
2023-09-04T15:18:03.134Z,1.38
2023-09-04T15:20:51.594Z,1.40
2023-09-04T15:23:37.244Z,1.42
2023-09-04T15:26:22.753Z,1.40
2023-09-04T15:29:07.998Z,1.40
2023-09-04T15:31:53.909Z,1.70
2023-09-04T15:34:39.597Z,1.80
2023-09-04T15:37:24.940Z,1.50
2023-09-04T15:40:10.297Z,1.50
2023-09-04T15:42:56.076Z,1.70
2023-09-04T15:45:41.541Z,1.80
2023-09-04T15:48:27.250Z,1.70
2023-09-04T15:51:13.075Z,1.73
2023-09-04T15:53:58.809Z,1.70
2023-09-04T15:56:44.442Z,1.77
2023-09-04T15:59:31.883Z,1.40
2023-09-04T16:02:17.568Z,1.58
2023-09-04T16:05:03.318Z,1.40
2023-09-04T16:07:48.685Z,1.40
2023-09-04T16:10:34.090Z,1.50
2023-09-04T16:13:20.958Z,1.33
2023-09-04T16:16:06.320Z,1.65
2023-09-04T16:18:51.758Z,1.30
2023-09-04T16:21:37.172Z,1.50
2023-09-04T16:24:22.798Z,1.60
2023-09-04T16:27:08.022Z,1.92
2023-09-04T16:29:53.936Z,1.50
2023-09-04T16:32:40.058Z,1.48
2023-09-04T16:35:25.636Z,1.50
2023-09-04T16:38:11.355Z,1.63
2023-09-04T16:40:56.766Z,1.60
2023-09-04T16:43:42.513Z,1.30
2023-09-04T16:46:28.039Z,1.40
2023-09-04T16:49:13.366Z,1.10
2023-09-04T16:52:00.735Z,1.48
2023-09-04T16:54:47.876Z,1.45
2023-09-04T16:57:33.280Z,1.50
2023-09-04T17:00:19.070Z,1.90
2023-09-04T17:03:04.260Z,1.42
2023-09-04T17:05:50.007Z,1.40
2023-09-04T17:08:35.398Z,1.50
2023-09-04T17:11:20.951Z,1.50
2023-09-04T17:14:07.343Z,1.38
2023-09-04T17:16:52.881Z,1.40
2023-09-04T17:19:38.412Z,1.35
2023-09-04T17:22:24.064Z,1.42
2023-09-04T17:25:09.530Z,1.60
2023-09-04T17:27:55.024Z,1.55
2023-09-04T17:30:42.700Z,1.50
2023-09-04T17:33:28.018Z,1.85
2023-09-04T17:36:13.406Z,1.80
2023-09-04T17:38:58.732Z,1.60
2023-09-04T17:41:44.328Z,1.10
2023-09-04T17:44:29.883Z,1.52
2023-09-04T17:47:15.384Z,1.42
2023-09-04T17:50:01.057Z,1.55
2023-09-04T17:52:46.272Z,1.23
2023-09-04T17:55:32.206Z,1.50
2023-09-04T17:58:17.862Z,1.70
2023-09-04T18:01:03.381Z,1.30
2023-09-04T18:03:48.710Z,1.60
2023-09-04T18:06:35.319Z,1.58
2023-09-04T18:09:21.172Z,1.52
2023-09-04T18:12:07.146Z,1.63
2023-09-04T18:14:52.428Z,1.50
2023-09-04T18:17:38.006Z,1.70
2023-09-04T18:20:24.707Z,2.05
2023-09-04T18:27:11.836Z,3.55
2023-09-04T18:30:01.997Z,2.42
2023-09-04T18:32:47.847Z,2.10
2023-09-04T18:35:33.854Z,2.00
2023-09-04T18:38:18.996Z,2.50
2023-09-04T18:41:08.896Z,2.33
2023-09-04T18:43:54.598Z,2.47
2023-09-04T18:46:40.221Z,2.20
2023-09-04T18:49:25.379Z,1.90
2023-09-04T18:52:10.820Z,1.85
2023-09-04T18:54:56.419Z,1.65
2023-09-04T18:57:41.889Z,1.90
2023-09-04T19:00:27.170Z,1.80
2023-09-04T19:03:12.810Z,1.58
2023-09-04T19:05:58.357Z,1.70
2023-09-04T19:08:43.978Z,1.90
2023-09-04T19:11:29.442Z,2.03
2023-09-04T19:14:14.888Z,1.90
2023-09-04T19:17:01.046Z,1.60
2023-09-04T19:19:46.672Z,1.50
2023-09-04T19:22:31.894Z,1.90
2023-09-04T19:25:17.645Z,1.85
2023-09-04T19:28:10.723Z,1.73
2023-09-04T19:30:56.463Z,1.98
2023-09-04T19:33:41.954Z,1.67
2023-09-04T19:36:27.618Z,1.92
2023-09-04T19:39:12.983Z,1.60
2023-09-04T19:41:58.473Z,1.50
2023-09-04T19:44:43.725Z,1.80
2023-09-04T19:47:29.555Z,1.80
2023-09-04T19:50:14.871Z,1.80
2023-09-04T19:53:00.246Z,1.55
2023-09-04T19:55:45.899Z,1.63
2023-09-04T19:58:31.386Z,1.92
2023-09-04T20:01:17.118Z,1.90
2023-09-04T20:04:02.506Z,1.77
2023-09-04T20:06:48.206Z,1.83
2023-09-04T20:09:34.759Z,1.88
2023-09-04T20:12:20.197Z,1.90
2023-09-04T20:15:06.216Z,1.83
2023-09-04T20:17:51.933Z,1.90
2023-09-04T20:20:37.274Z,1.70
2023-09-04T20:23:23.150Z,1.80
2023-09-04T20:26:09.340Z,1.80
2023-09-04T20:28:58.182Z,1.65
2023-09-04T20:31:44.295Z,1.70
2023-09-04T20:34:29.723Z,1.88
2023-09-04T20:37:15.494Z,1.90
2023-09-04T20:40:01.107Z,1.77
2023-09-04T20:42:46.742Z,1.70
2023-09-04T20:45:31.915Z,1.83
2023-09-04T20:48:17.175Z,1.90
2023-09-04T20:51:03.268Z,1.88
2023-09-04T20:53:48.561Z,2.00
2023-09-04T20:56:34.114Z,1.60
2023-09-04T20:59:19.302Z,2.00
2023-09-04T21:02:04.960Z,1.90
2023-09-04T21:04:50.343Z,1.80
2023-09-04T21:07:35.748Z,1.80
2023-09-04T21:10:21.436Z,1.92
2023-09-04T21:13:06.684Z,1.85
2023-09-04T21:15:52.966Z,2.00
2023-09-04T21:18:38.668Z,1.90
2023-09-04T21:21:24.047Z,1.90
2023-09-04T21:24:09.582Z,2.20
2023-09-04T21:26:55.306Z,2.22
2023-09-04T21:29:40.864Z,2.20
2023-09-04T21:32:26.543Z,2.00
2023-09-04T21:35:11.970Z,2.15
2023-09-04T21:37:57.601Z,2.17
2023-09-04T21:40:42.972Z,2.30
2023-09-04T21:43:28.627Z,2.00
2023-09-04T21:46:14.198Z,1.90
2023-09-04T21:49:02.078Z,2.28
2023-09-04T21:51:47.438Z,2.20
2023-09-04T21:54:32.802Z,2.10
2023-09-04T21:57:18.155Z,2.30
2023-09-04T22:00:04.087Z,2.20
2023-09-04T22:02:50.925Z,2.10
2023-09-04T22:05:36.366Z,2.50
2023-09-04T22:08:21.281Z,1.95
2023-09-04T22:11:06.764Z,2.65
2023-09-04T22:13:52.217Z,2.30
2023-09-04T22:16:40.379Z,2.72
2023-09-04T22:19:31.581Z,2.38
2023-09-04T22:22:16.827Z,2.30
2023-09-04T22:25:02.432Z,2.35
2023-09-04T22:27:48.146Z,2.33
2023-09-04T22:30:33.470Z,2.40
2023-09-04T22:33:19.034Z,2.47
2023-09-04T22:36:04.130Z,2.42
2023-09-04T22:38:49.984Z,2.58
2023-09-04T22:41:34.892Z,2.85
2023-09-04T22:44:20.507Z,2.75
2023-09-04T22:47:06.069Z,2.80
2023-09-04T22:49:51.328Z,2.55
2023-09-04T22:52:36.355Z,2.70
2023-09-04T22:55:21.682Z,3.00
2023-09-04T22:58:06.789Z,3.20
2023-09-04T23:00:52.325Z,2.85
2023-09-04T23:03:37.727Z,3.10
2023-09-04T23:06:23.520Z,3.28
2023-09-04T23:09:08.623Z,3.08
2023-09-04T23:11:54.253Z,3.15
2023-09-04T23:14:39.705Z,2.80
2023-09-04T23:17:24.954Z,3.13
2023-09-04T23:20:10.668Z,3.13
2023-09-04T23:22:55.936Z,3.50
2023-09-04T23:25:41.330Z,3.63
2023-09-04T23:28:26.974Z,3.03
2023-09-04T23:31:12.269Z,3.40
2023-09-04T23:33:57.836Z,3.15
2023-09-04T23:36:43.932Z,3.28
2023-09-04T23:39:32.473Z,3.28
2023-09-04T23:42:17.816Z,3.08
2023-09-04T23:45:03.214Z,3.15
2023-09-04T23:47:49.747Z,3.25
2023-09-04T23:50:34.969Z,3.47
2023-09-04T23:53:20.438Z,3.40
2023-09-04T23:56:07.350Z,3.97
2023-09-04T23:58:52.826Z,3.45
